sensor_id;sensor_type;location;lat;lon;timestamp;P1;durP1;ratioP1;P2;durP2;ratioP2
21905;SDS011;11117;48.644;9.006;2023-06-22T00:00:09;16.40;;;10.00;;
21905;SDS011;11117;48.644;9.006;2023-06-22T00:02:35;14.30;;;10.45;;
21905;SDS011;11117;48.644;9.006;2023-06-22T00:05:00;14.95;;;10.60;;
21905;SDS011;11117;48.644;9.006;2023-06-22T00:07:26;17.17;;;11.13;;
21905;SDS011;11117;48.644;9.006;2023-06-22T00:09:52;16.25;;;10.52;;
21905;SDS011;11117;48.644;9.006;2023-06-22T00:12:17;16.13;;;10.63;;
21905;SDS011;11117;48.644;9.006;2023-06-22T00:14:43;12.30;;;10.40;;
21905;SDS011;11117;48.644;9.006;2023-06-22T00:17:08;17.30;;;10.52;;
21905;SDS011;11117;48.644;9.006;2023-06-22T00:19:34;13.80;;;10.75;;
21905;SDS011;11117;48.644;9.006;2023-06-22T00:21:59;15.55;;;11.00;;
21905;SDS011;11117;48.644;9.006;2023-06-22T00:24:25;16.80;;;11.07;;
21905;SDS011;11117;48.644;9.006;2023-06-22T00:26:50;16.50;;;10.98;;
21905;SDS011;11117;48.644;9.006;2023-06-22T00:29:16;19.05;;;11.32;;
21905;SDS011;11117;48.644;9.006;2023-06-22T00:31:42;16.67;;;10.68;;
21905;SDS011;11117;48.644;9.006;2023-06-22T00:34:08;16.13;;;11.30;;
21905;SDS011;11117;48.644;9.006;2023-06-22T00:36:34;17.27;;;11.88;;
21905;SDS011;11117;48.644;9.006;2023-06-22T00:39:00;19.95;;;12.45;;
21905;SDS011;11117;48.644;9.006;2023-06-22T00:41:25;15.07;;;11.30;;
21905;SDS011;11117;48.644;9.006;2023-06-22T00:43:51;17.27;;;11.73;;
21905;SDS011;11117;48.644;9.006;2023-06-22T00:46:16;13.07;;;11.35;;
21905;SDS011;11117;48.644;9.006;2023-06-22T00:48:42;13.27;;;11.10;;
21905;SDS011;11117;48.644;9.006;2023-06-22T00:51:08;17.60;;;11.77;;
21905;SDS011;11117;48.644;9.006;2023-06-22T00:53:33;18.33;;;12.30;;
21905;SDS011;11117;48.644;9.006;2023-06-22T00:55:59;17.48;;;11.73;;
21905;SDS011;11117;48.644;9.006;2023-06-22T00:58:25;18.08;;;12.13;;
21905;SDS011;11117;48.644;9.006;2023-06-22T01:00:51;17.40;;;12.60;;
21905;SDS011;11117;48.644;9.006;2023-06-22T01:03:16;19.92;;;13.02;;
21905;SDS011;11117;48.644;9.006;2023-06-22T01:05:42;17.58;;;12.27;;
21905;SDS011;11117;48.644;9.006;2023-06-22T01:08:29;18.65;;;13.18;;
21905;SDS011;11117;48.644;9.006;2023-06-22T01:11:06;18.92;;;13.48;;
21905;SDS011;11117;48.644;9.006;2023-06-22T01:13:37;16.60;;;12.57;;
21905;SDS011;11117;48.644;9.006;2023-06-22T01:18:46;22.63;;;13.02;;
21905;SDS011;11117;48.644;9.006;2023-06-22T01:21:16;23.98;;;13.57;;
21905;SDS011;11117;48.644;9.006;2023-06-22T01:26:22;19.63;;;12.95;;
21905;SDS011;11117;48.644;9.006;2023-06-22T01:28:57;20.65;;;12.40;;
21905;SDS011;11117;48.644;9.006;2023-06-22T01:31:25;23.85;;;13.23;;
21905;SDS011;11117;48.644;9.006;2023-06-22T01:33:53;19.40;;;12.27;;
21905;SDS011;11117;48.644;9.006;2023-06-22T01:36:30;16.80;;;12.27;;
21905;SDS011;11117;48.644;9.006;2023-06-22T01:38:57;19.25;;;11.90;;
21905;SDS011;11117;48.644;9.006;2023-06-22T01:41:27;18.48;;;11.35;;
21905;SDS011;11117;48.644;9.006;2023-06-22T01:43:55;18.40;;;12.07;;
21905;SDS011;11117;48.644;9.006;2023-06-22T01:46:21;17.58;;;11.80;;
21905;SDS011;11117;48.644;9.006;2023-06-22T01:48:46;15.88;;;11.35;;
21905;SDS011;11117;48.644;9.006;2023-06-22T01:51:13;17.48;;;12.18;;
21905;SDS011;11117;48.644;9.006;2023-06-22T01:53:38;17.73;;;12.13;;
21905;SDS011;11117;48.644;9.006;2023-06-22T01:56:04;17.98;;;11.68;;
21905;SDS011;11117;48.644;9.006;2023-06-22T01:58:30;16.98;;;11.85;;
21905;SDS011;11117;48.644;9.006;2023-06-22T02:01:03;16.35;;;11.80;;
21905;SDS011;11117;48.644;9.006;2023-06-22T02:03:36;16.58;;;12.10;;
21905;SDS011;11117;48.644;9.006;2023-06-22T02:06:06;17.67;;;11.35;;
21905;SDS011;11117;48.644;9.006;2023-06-22T02:08:37;16.45;;;11.43;;
21905;SDS011;11117;48.644;9.006;2023-06-22T02:11:07;15.80;;;11.35;;
21905;SDS011;11117;48.644;9.006;2023-06-22T02:13:35;16.63;;;11.45;;
21905;SDS011;11117;48.644;9.006;2023-06-22T02:16:02;15.27;;;11.40;;
21905;SDS011;11117;48.644;9.006;2023-06-22T02:18:28;19.73;;;12.27;;
21905;SDS011;11117;48.644;9.006;2023-06-22T02:20:54;17.05;;;11.77;;
21905;SDS011;11117;48.644;9.006;2023-06-22T02:23:19;19.45;;;12.00;;
21905;SDS011;11117;48.644;9.006;2023-06-22T02:25:45;17.35;;;12.55;;
21905;SDS011;11117;48.644;9.006;2023-06-22T02:28:11;18.15;;;12.30;;
21905;SDS011;11117;48.644;9.006;2023-06-22T02:30:36;18.35;;;11.65;;
21905;SDS011;11117;48.644;9.006;2023-06-22T02:33:02;16.25;;;11.70;;
21905;SDS011;11117;48.644;9.006;2023-06-22T02:35:28;18.15;;;11.25;;
21905;SDS011;11117;48.644;9.006;2023-06-22T02:37:55;19.77;;;11.80;;
21905;SDS011;11117;48.644;9.006;2023-06-22T02:40:21;16.67;;;11.20;;
21905;SDS011;11117;48.644;9.006;2023-06-22T02:42:47;14.52;;;10.80;;
21905;SDS011;11117;48.644;9.006;2023-06-22T02:45:12;15.50;;;10.73;;
21905;SDS011;11117;48.644;9.006;2023-06-22T02:47:38;18.15;;;10.95;;
21905;SDS011;11117;48.644;9.006;2023-06-22T02:50:03;20.80;;;11.20;;
21905;SDS011;11117;48.644;9.006;2023-06-22T02:52:29;17.42;;;11.20;;
21905;SDS011;11117;48.644;9.006;2023-06-22T02:54:55;15.20;;;11.30;;
21905;SDS011;11117;48.644;9.006;2023-06-22T02:57:20;17.55;;;10.82;;
21905;SDS011;11117;48.644;9.006;2023-06-22T02:59:46;18.23;;;11.63;;
21905;SDS011;11117;48.644;9.006;2023-06-22T03:02:12;18.50;;;11.77;;
21905;SDS011;11117;48.644;9.006;2023-06-22T03:04:37;19.92;;;11.75;;
21905;SDS011;11117;48.644;9.006;2023-06-22T03:07:03;13.88;;;11.20;;
21905;SDS011;11117;48.644;9.006;2023-06-22T03:09:30;17.60;;;11.65;;
21905;SDS011;11117;48.644;9.006;2023-06-22T03:11:55;18.10;;;11.60;;
21905;SDS011;11117;48.644;9.006;2023-06-22T03:14:21;18.33;;;11.55;;
21905;SDS011;11117;48.644;9.006;2023-06-22T03:16:47;23.67;;;12.30;;
21905;SDS011;11117;48.644;9.006;2023-06-22T03:19:12;15.32;;;10.80;;
21905;SDS011;11117;48.644;9.006;2023-06-22T03:21:38;21.52;;;11.57;;
21905;SDS011;11117;48.644;9.006;2023-06-22T03:24:04;18.45;;;12.05;;
21905;SDS011;11117;48.644;9.006;2023-06-22T03:26:31;16.77;;;12.27;;
21905;SDS011;11117;48.644;9.006;2023-06-22T03:28:56;17.77;;;12.10;;
21905;SDS011;11117;48.644;9.006;2023-06-22T03:31:22;22.60;;;12.80;;
21905;SDS011;11117;48.644;9.006;2023-06-22T03:33:48;15.68;;;12.35;;
21905;SDS011;11117;48.644;9.006;2023-06-22T03:36:15;23.60;;;11.55;;
21905;SDS011;11117;48.644;9.006;2023-06-22T03:38:41;18.27;;;11.50;;
21905;SDS011;11117;48.644;9.006;2023-06-22T03:41:06;18.33;;;12.00;;
21905;SDS011;11117;48.644;9.006;2023-06-22T03:43:32;16.02;;;12.07;;
21905;SDS011;11117;48.644;9.006;2023-06-22T03:45:57;17.48;;;11.50;;
21905;SDS011;11117;48.644;9.006;2023-06-22T03:48:23;18.58;;;12.40;;
21905;SDS011;11117;48.644;9.006;2023-06-22T03:50:49;22.10;;;12.43;;
21905;SDS011;11117;48.644;9.006;2023-06-22T03:53:14;21.55;;;12.02;;
21905;SDS011;11117;48.644;9.006;2023-06-22T03:55:47;16.58;;;12.00;;
21905;SDS011;11117;48.644;9.006;2023-06-22T03:58:14;20.20;;;12.65;;
21905;SDS011;11117;48.644;9.006;2023-06-22T04:00:40;16.50;;;10.93;;
21905;SDS011;11117;48.644;9.006;2023-06-22T04:03:05;18.35;;;12.82;;
21905;SDS011;11117;48.644;9.006;2023-06-22T04:05:31;18.30;;;11.65;;
21905;SDS011;11117;48.644;9.006;2023-06-22T04:07:58;16.30;;;11.65;;
21905;SDS011;11117;48.644;9.006;2023-06-22T04:10:24;20.70;;;11.70;;
21905;SDS011;11117;48.644;9.006;2023-06-22T04:12:49;19.15;;;11.73;;
21905;SDS011;11117;48.644;9.006;2023-06-22T04:15:15;19.23;;;10.95;;
21905;SDS011;11117;48.644;9.006;2023-06-22T04:17:41;14.40;;;9.75;;
21905;SDS011;11117;48.644;9.006;2023-06-22T04:20:06;14.50;;;10.50;;
21905;SDS011;11117;48.644;9.006;2023-06-22T04:22:32;15.10;;;9.85;;
21905;SDS011;11117;48.644;9.006;2023-06-22T04:24:58;14.15;;;9.77;;
21905;SDS011;11117;48.644;9.006;2023-06-22T04:27:23;16.58;;;9.85;;
21905;SDS011;11117;48.644;9.006;2023-06-22T04:29:49;13.10;;;9.30;;
21905;SDS011;11117;48.644;9.006;2023-06-22T04:32:15;17.05;;;8.98;;
21905;SDS011;11117;48.644;9.006;2023-06-22T04:34:41;15.95;;;9.73;;
21905;SDS011;11117;48.644;9.006;2023-06-22T04:37:07;17.40;;;10.00;;
21905;SDS011;11117;48.644;9.006;2023-06-22T04:39:32;13.60;;;9.85;;
21905;SDS011;11117;48.644;9.006;2023-06-22T04:41:58;10.68;;;8.88;;
21905;SDS011;11117;48.644;9.006;2023-06-22T04:44:23;13.45;;;9.48;;
21905;SDS011;11117;48.644;9.006;2023-06-22T04:46:49;14.90;;;8.60;;
21905;SDS011;11117;48.644;9.006;2023-06-22T04:49:16;15.88;;;9.18;;
21905;SDS011;11117;48.644;9.006;2023-06-22T04:51:41;13.98;;;8.85;;
21905;SDS011;11117;48.644;9.006;2023-06-22T04:54:08;14.85;;;8.77;;
21905;SDS011;11117;48.644;9.006;2023-06-22T04:56:34;11.70;;;8.40;;
21905;SDS011;11117;48.644;9.006;2023-06-22T04:59:00;16.83;;;9.45;;
21905;SDS011;11117;48.644;9.006;2023-06-22T05:01:26;11.68;;;8.80;;
21905;SDS011;11117;48.644;9.006;2023-06-22T05:03:52;13.43;;;8.57;;
21905;SDS011;11117;48.644;9.006;2023-06-22T05:06:17;12.50;;;8.40;;
21905;SDS011;11117;48.644;9.006;2023-06-22T05:08:43;14.25;;;8.73;;
21905;SDS011;11117;48.644;9.006;2023-06-22T05:11:12;14.73;;;8.57;;
21905;SDS011;11117;48.644;9.006;2023-06-22T05:13:37;13.98;;;8.15;;
21905;SDS011;11117;48.644;9.006;2023-06-22T05:16:03;13.80;;;8.10;;
21905;SDS011;11117;48.644;9.006;2023-06-22T05:18:29;12.35;;;8.50;;
21905;SDS011;11117;48.644;9.006;2023-06-22T05:20:55;14.75;;;7.80;;
21905;SDS011;11117;48.644;9.006;2023-06-22T05:23:21;10.68;;;8.52;;
21905;SDS011;11117;48.644;9.006;2023-06-22T05:25:46;13.95;;;7.97;;
21905;SDS011;11117;48.644;9.006;2023-06-22T05:28:12;15.35;;;7.95;;
21905;SDS011;11117;48.644;9.006;2023-06-22T05:30:37;11.75;;;7.95;;
21905;SDS011;11117;48.644;9.006;2023-06-22T05:33:03;12.63;;;8.00;;
21905;SDS011;11117;48.644;9.006;2023-06-22T05:35:28;11.38;;;7.10;;
21905;SDS011;11117;48.644;9.006;2023-06-22T05:37:55;17.55;;;7.47;;
21905;SDS011;11117;48.644;9.006;2023-06-22T05:40:21;11.90;;;7.63;;
21905;SDS011;11117;48.644;9.006;2023-06-22T05:42:46;10.80;;;7.30;;
21905;SDS011;11117;48.644;9.006;2023-06-22T05:45:12;12.45;;;7.07;;
21905;SDS011;11117;48.644;9.006;2023-06-22T05:47:38;12.80;;;6.80;;
21905;SDS011;11117;48.644;9.006;2023-06-22T05:50:04;12.70;;;6.93;;
21905;SDS011;11117;48.644;9.006;2023-06-22T05:52:30;12.27;;;6.68;;
21905;SDS011;11117;48.644;9.006;2023-06-22T05:54:55;11.85;;;6.88;;
21905;SDS011;11117;48.644;9.006;2023-06-22T05:57:21;14.88;;;7.40;;
21905;SDS011;11117;48.644;9.006;2023-06-22T05:59:47;14.88;;;7.10;;
21905;SDS011;11117;48.644;9.006;2023-06-22T06:02:12;11.82;;;6.88;;
21905;SDS011;11117;48.644;9.006;2023-06-22T06:04:38;13.65;;;7.35;;
21905;SDS011;11117;48.644;9.006;2023-06-22T06:07:03;12.15;;;7.38;;
21905;SDS011;11117;48.644;9.006;2023-06-22T06:09:29;8.90;;;6.75;;
21905;SDS011;11117;48.644;9.006;2023-06-22T06:11:54;10.85;;;6.55;;
21905;SDS011;11117;48.644;9.006;2023-06-22T06:14:20;10.15;;;6.32;;
21905;SDS011;11117;48.644;9.006;2023-06-22T06:16:45;10.13;;;6.13;;
21905;SDS011;11117;48.644;9.006;2023-06-22T06:19:11;10.60;;;6.45;;
21905;SDS011;11117;48.644;9.006;2023-06-22T06:21:36;12.88;;;6.13;;
21905;SDS011;11117;48.644;9.006;2023-06-22T06:24:02;9.70;;;6.40;;
21905;SDS011;11117;48.644;9.006;2023-06-22T06:26:27;13.63;;;6.45;;
21905;SDS011;11117;48.644;9.006;2023-06-22T06:28:53;11.88;;;5.88;;
21905;SDS011;11117;48.644;9.006;2023-06-22T06:31:20;10.40;;;5.72;;
21905;SDS011;11117;48.644;9.006;2023-06-22T06:33:45;10.80;;;5.50;;
21905;SDS011;11117;48.644;9.006;2023-06-22T06:36:11;12.52;;;5.85;;
21905;SDS011;11117;48.644;9.006;2023-06-22T06:38:36;9.82;;;5.75;;
21905;SDS011;11117;48.644;9.006;2023-06-22T06:41:02;10.48;;;5.30;;
21905;SDS011;11117;48.644;9.006;2023-06-22T06:43:27;8.65;;;5.30;;
21905;SDS011;11117;48.644;9.006;2023-06-22T06:45:53;12.30;;;5.15;;
21905;SDS011;11117;48.644;9.006;2023-06-22T06:48:18;11.80;;;5.80;;
21905;SDS011;11117;48.644;9.006;2023-06-22T06:50:44;8.55;;;5.80;;
21905;SDS011;11117;48.644;9.006;2023-06-22T06:53:10;7.95;;;5.10;;
21905;SDS011;11117;48.644;9.006;2023-06-22T06:55:35;10.00;;;5.45;;
21905;SDS011;11117;48.644;9.006;2023-06-22T06:58:01;9.43;;;5.10;;
21905;SDS011;11117;48.644;9.006;2023-06-22T07:00:27;7.15;;;4.63;;
21905;SDS011;11117;48.644;9.006;2023-06-22T07:02:53;10.68;;;5.60;;
21905;SDS011;11117;48.644;9.006;2023-06-22T07:05:19;9.02;;;5.70;;
21905;SDS011;11117;48.644;9.006;2023-06-22T07:07:44;16.45;;;5.15;;
21905;SDS011;11117;48.644;9.006;2023-06-22T07:10:10;11.18;;;5.28;;
21905;SDS011;11117;48.644;9.006;2023-06-22T07:12:36;7.65;;;4.95;;
21905;SDS011;11117;48.644;9.006;2023-06-22T07:15:04;8.43;;;5.20;;
21905;SDS011;11117;48.644;9.006;2023-06-22T07:17:31;9.85;;;5.25;;
21905;SDS011;11117;48.644;9.006;2023-06-22T07:19:57;11.60;;;5.15;;
21905;SDS011;11117;48.644;9.006;2023-06-22T07:22:22;14.55;;;5.05;;
21905;SDS011;11117;48.644;9.006;2023-06-22T07:24:48;10.32;;;5.30;;
21905;SDS011;11117;48.644;9.006;2023-06-22T07:27:13;12.57;;;5.63;;
21905;SDS011;11117;48.644;9.006;2023-06-22T07:29:39;16.60;;;5.90;;
21905;SDS011;11117;48.644;9.006;2023-06-22T07:32:04;10.52;;;5.15;;
21905;SDS011;11117;48.644;9.006;2023-06-22T07:34:30;13.32;;;6.05;;
21905;SDS011;11117;48.644;9.006;2023-06-22T07:36:56;26.08;;;20.08;;
21905;SDS011;11117;48.644;9.006;2023-06-22T07:39:21;17.85;;;12.20;;
21905;SDS011;11117;48.644;9.006;2023-06-22T07:41:47;10.43;;;7.13;;
21905;SDS011;11117;48.644;9.006;2023-06-22T07:44:12;12.43;;;8.15;;
21905;SDS011;11117;48.644;9.006;2023-06-22T07:46:38;13.38;;;5.60;;
21905;SDS011;11117;48.644;9.006;2023-06-22T07:49:04;13.27;;;5.53;;
21905;SDS011;11117;48.644;9.006;2023-06-22T07:51:29;11.35;;;5.20;;
21905;SDS011;11117;48.644;9.006;2023-06-22T07:53:55;18.42;;;5.30;;
21905;SDS011;11117;48.644;9.006;2023-06-22T07:56:20;11.98;;;5.20;;
21905;SDS011;11117;48.644;9.006;2023-06-22T07:58:46;13.20;;;5.90;;
21905;SDS011;11117;48.644;9.006;2023-06-22T08:01:13;10.23;;;5.03;;
21905;SDS011;11117;48.644;9.006;2023-06-22T08:03:39;9.77;;;4.80;;
21905;SDS011;11117;48.644;9.006;2023-06-22T08:06:04;8.52;;;5.05;;
21905;SDS011;11117;48.644;9.006;2023-06-22T08:08:30;11.95;;;5.28;;
21905;SDS011;11117;48.644;9.006;2023-06-22T08:10:56;11.00;;;4.93;;
21905;SDS011;11117;48.644;9.006;2023-06-22T08:13:22;12.82;;;4.75;;
21905;SDS011;11117;48.644;9.006;2023-06-22T08:15:47;9.57;;;5.60;;
21905;SDS011;11117;48.644;9.006;2023-06-22T08:18:13;9.52;;;4.90;;
21905;SDS011;11117;48.644;9.006;2023-06-22T08:20:38;12.15;;;5.50;;
21905;SDS011;11117;48.644;9.006;2023-06-22T08:23:04;6.78;;;4.55;;
21905;SDS011;11117;48.644;9.006;2023-06-22T08:25:29;9.30;;;4.88;;
21905;SDS011;11117;48.644;9.006;2023-06-22T08:27:55;11.15;;;5.00;;
21905;SDS011;11117;48.644;9.006;2023-06-22T08:30:20;10.80;;;4.80;;
21905;SDS011;11117;48.644;9.006;2023-06-22T08:32:46;9.57;;;5.38;;
21905;SDS011;11117;48.644;9.006;2023-06-22T08:35:11;15.95;;;4.97;;
21905;SDS011;11117;48.644;9.006;2023-06-22T08:37:37;7.18;;;4.60;;
21905;SDS011;11117;48.644;9.006;2023-06-22T08:40:04;12.85;;;4.90;;
21905;SDS011;11117;48.644;9.006;2023-06-22T08:42:30;10.55;;;5.50;;
21905;SDS011;11117;48.644;9.006;2023-06-22T08:44:56;13.10;;;5.07;;
21905;SDS011;11117;48.644;9.006;2023-06-22T08:47:22;10.35;;;5.20;;
21905;SDS011;11117;48.644;9.006;2023-06-22T08:49:48;10.68;;;5.07;;
21905;SDS011;11117;48.644;9.006;2023-06-22T08:52:13;12.95;;;5.20;;
21905;SDS011;11117;48.644;9.006;2023-06-22T08:54:39;12.50;;;4.97;;
21905;SDS011;11117;48.644;9.006;2023-06-22T08:57:05;12.63;;;5.38;;
21905;SDS011;11117;48.644;9.006;2023-06-22T08:59:31;10.18;;;4.78;;
21905;SDS011;11117;48.644;9.006;2023-06-22T09:01:56;12.18;;;4.88;;
21905;SDS011;11117;48.644;9.006;2023-06-22T09:04:22;8.98;;;5.25;;
21905;SDS011;11117;48.644;9.006;2023-06-22T09:06:48;12.40;;;5.15;;
21905;SDS011;11117;48.644;9.006;2023-06-22T09:09:14;11.23;;;4.80;;
21905;SDS011;11117;48.644;9.006;2023-06-22T09:11:40;11.77;;;4.85;;
21905;SDS011;11117;48.644;9.006;2023-06-22T09:14:06;11.18;;;4.43;;
21905;SDS011;11117;48.644;9.006;2023-06-22T09:16:31;11.75;;;5.20;;
21905;SDS011;11117;48.644;9.006;2023-06-22T09:18:57;15.48;;;5.00;;
21905;SDS011;11117;48.644;9.006;2023-06-22T09:21:24;15.88;;;4.95;;
21905;SDS011;11117;48.644;9.006;2023-06-22T09:23:50;21.42;;;5.57;;
21905;SDS011;11117;48.644;9.006;2023-06-22T09:26:15;9.88;;;4.90;;
21905;SDS011;11117;48.644;9.006;2023-06-22T09:28:41;11.82;;;5.18;;
21905;SDS011;11117;48.644;9.006;2023-06-22T09:31:07;9.25;;;4.80;;
21905;SDS011;11117;48.644;9.006;2023-06-22T09:33:32;11.35;;;5.32;;
21905;SDS011;11117;48.644;9.006;2023-06-22T09:35:58;14.77;;;5.22;;
21905;SDS011;11117;48.644;9.006;2023-06-22T09:38:23;17.23;;;5.38;;
21905;SDS011;11117;48.644;9.006;2023-06-22T09:40:49;9.05;;;4.63;;
21905;SDS011;11117;48.644;9.006;2023-06-22T09:43:14;11.00;;;4.53;;
21905;SDS011;11117;48.644;9.006;2023-06-22T09:45:40;12.63;;;5.10;;
21905;SDS011;11117;48.644;9.006;2023-06-22T09:48:05;15.15;;;5.40;;
21905;SDS011;11117;48.644;9.006;2023-06-22T09:50:31;16.73;;;5.43;;
21905;SDS011;11117;48.644;9.006;2023-06-22T09:52:59;10.95;;;4.80;;
21905;SDS011;11117;48.644;9.006;2023-06-22T09:55:24;13.05;;;4.80;;
21905;SDS011;11117;48.644;9.006;2023-06-22T09:57:50;11.98;;;5.25;;
21905;SDS011;11117;48.644;9.006;2023-06-22T10:00:16;11.80;;;5.18;;
21905;SDS011;11117;48.644;9.006;2023-06-22T10:02:42;14.43;;;5.15;;
21905;SDS011;11117;48.644;9.006;2023-06-22T10:05:08;17.95;;;5.45;;
21905;SDS011;11117;48.644;9.006;2023-06-22T10:07:33;10.90;;;4.97;;
21905;SDS011;11117;48.644;9.006;2023-06-22T10:09:59;10.70;;;5.00;;
21905;SDS011;11117;48.644;9.006;2023-06-22T10:12:26;13.75;;;4.85;;
21905;SDS011;11117;48.644;9.006;2023-06-22T10:14:52;16.77;;;4.97;;
21905;SDS011;11117;48.644;9.006;2023-06-22T10:17:18;14.85;;;4.93;;
21905;SDS011;11117;48.644;9.006;2023-06-22T10:19:43;11.02;;;5.15;;
21905;SDS011;11117;48.644;9.006;2023-06-22T10:22:09;14.25;;;4.97;;
21905;SDS011;11117;48.644;9.006;2023-06-22T10:24:35;17.67;;;5.53;;
21905;SDS011;11117;48.644;9.006;2023-06-22T10:27:00;11.20;;;4.82;;
21905;SDS011;11117;48.644;9.006;2023-06-22T10:29:26;13.55;;;5.28;;
21905;SDS011;11117;48.644;9.006;2023-06-22T10:31:51;15.00;;;5.28;;
21905;SDS011;11117;48.644;9.006;2023-06-22T10:34:17;14.65;;;5.13;;
21905;SDS011;11117;48.644;9.006;2023-06-22T10:36:42;13.00;;;5.35;;
21905;SDS011;11117;48.644;9.006;2023-06-22T10:39:08;14.70;;;5.57;;
21905;SDS011;11117;48.644;9.006;2023-06-22T10:41:34;20.02;;;5.28;;
21905;SDS011;11117;48.644;9.006;2023-06-22T10:44:00;12.82;;;5.00;;
21905;SDS011;11117;48.644;9.006;2023-06-22T10:46:25;9.35;;;4.35;;
21905;SDS011;11117;48.644;9.006;2023-06-22T10:48:51;15.43;;;4.80;;
21905;SDS011;11117;48.644;9.006;2023-06-22T10:51:17;14.02;;;4.70;;
21905;SDS011;11117;48.644;9.006;2023-06-22T10:53:42;14.52;;;4.93;;
21905;SDS011;11117;48.644;9.006;2023-06-22T10:56:08;14.25;;;5.65;;
21905;SDS011;11117;48.644;9.006;2023-06-22T10:58:33;15.82;;;5.57;;
21905;SDS011;11117;48.644;9.006;2023-06-22T11:00:59;18.45;;;5.35;;
21905;SDS011;11117;48.644;9.006;2023-06-22T11:03:24;15.98;;;5.55;;
21905;SDS011;11117;48.644;9.006;2023-06-22T11:05:50;14.70;;;5.18;;
21905;SDS011;11117;48.644;9.006;2023-06-22T11:08:15;12.32;;;4.60;;
21905;SDS011;11117;48.644;9.006;2023-06-22T11:10:41;11.63;;;4.78;;
21905;SDS011;11117;48.644;9.006;2023-06-22T11:13:07;17.13;;;4.95;;
21905;SDS011;11117;48.644;9.006;2023-06-22T11:15:33;21.20;;;5.72;;
21905;SDS011;11117;48.644;9.006;2023-06-22T11:17:59;14.13;;;5.22;;
21905;SDS011;11117;48.644;9.006;2023-06-22T11:20:25;15.45;;;5.32;;
21905;SDS011;11117;48.644;9.006;2023-06-22T11:22:50;15.05;;;5.03;;
21905;SDS011;11117;48.644;9.006;2023-06-22T11:25:16;15.98;;;5.30;;
21905;SDS011;11117;48.644;9.006;2023-06-22T11:27:41;14.55;;;4.75;;
21905;SDS011;11117;48.644;9.006;2023-06-22T11:30:07;14.98;;;4.85;;
21905;SDS011;11117;48.644;9.006;2023-06-22T11:32:33;15.63;;;5.40;;
21905;SDS011;11117;48.644;9.006;2023-06-22T11:34:59;15.27;;;5.85;;
21905;SDS011;11117;48.644;9.006;2023-06-22T11:37:26;15.75;;;5.50;;
21905;SDS011;11117;48.644;9.006;2023-06-22T11:39:51;12.30;;;5.35;;
21905;SDS011;11117;48.644;9.006;2023-06-22T11:42:17;7.63;;;5.30;;
21905;SDS011;11117;48.644;9.006;2023-06-22T11:44:42;14.57;;;5.88;;
21905;SDS011;11117;48.644;9.006;2023-06-22T11:47:08;13.00;;;6.00;;
21905;SDS011;11117;48.644;9.006;2023-06-22T11:49:33;13.25;;;5.90;;
21905;SDS011;11117;48.644;9.006;2023-06-22T11:51:59;13.10;;;5.55;;
21905;SDS011;11117;48.644;9.006;2023-06-22T11:54:24;14.18;;;5.72;;
21905;SDS011;11117;48.644;9.006;2023-06-22T11:56:50;15.77;;;5.70;;
21905;SDS011;11117;48.644;9.006;2023-06-22T11:59:15;11.25;;;5.47;;
21905;SDS011;11117;48.644;9.006;2023-06-22T12:01:41;11.77;;;4.75;;
21905;SDS011;11117;48.644;9.006;2023-06-22T12:04:06;12.30;;;5.63;;
21905;SDS011;11117;48.644;9.006;2023-06-22T12:06:32;16.88;;;5.80;;
21905;SDS011;11117;48.644;9.006;2023-06-22T12:08:58;15.95;;;5.40;;
21905;SDS011;11117;48.644;9.006;2023-06-22T12:11:24;15.70;;;5.75;;
21905;SDS011;11117;48.644;9.006;2023-06-22T12:13:49;11.43;;;5.43;;
21905;SDS011;11117;48.644;9.006;2023-06-22T12:16:15;11.98;;;5.50;;
21905;SDS011;11117;48.644;9.006;2023-06-22T12:18:40;14.77;;;5.47;;
21905;SDS011;11117;48.644;9.006;2023-06-22T12:21:06;12.27;;;5.50;;
21905;SDS011;11117;48.644;9.006;2023-06-22T12:23:32;13.68;;;5.60;;
21905;SDS011;11117;48.644;9.006;2023-06-22T12:25:58;18.30;;;5.93;;
21905;SDS011;11117;48.644;9.006;2023-06-22T12:28:23;16.13;;;5.88;;
21905;SDS011;11117;48.644;9.006;2023-06-22T12:30:49;13.40;;;5.78;;
21905;SDS011;11117;48.644;9.006;2023-06-22T12:33:14;11.00;;;5.50;;
21905;SDS011;11117;48.644;9.006;2023-06-22T12:35:40;19.40;;;6.03;;
21905;SDS011;11117;48.644;9.006;2023-06-22T12:38:05;11.07;;;5.43;;
21905;SDS011;11117;48.644;9.006;2023-06-22T12:40:31;17.48;;;5.40;;
21905;SDS011;11117;48.644;9.006;2023-06-22T12:42:58;12.52;;;5.32;;
21905;SDS011;11117;48.644;9.006;2023-06-22T12:45:23;13.38;;;6.32;;
21905;SDS011;11117;48.644;9.006;2023-06-22T12:47:49;15.80;;;5.40;;
21905;SDS011;11117;48.644;9.006;2023-06-22T12:50:15;17.27;;;5.63;;
21905;SDS011;11117;48.644;9.006;2023-06-22T12:52:40;13.13;;;6.07;;
21905;SDS011;11117;48.644;9.006;2023-06-22T12:55:06;16.83;;;5.40;;
21905;SDS011;11117;48.644;9.006;2023-06-22T12:57:32;12.05;;;5.90;;
21905;SDS011;11117;48.644;9.006;2023-06-22T12:59:57;17.55;;;6.18;;
21905;SDS011;11117;48.644;9.006;2023-06-22T13:02:23;13.93;;;5.32;;
21905;SDS011;11117;48.644;9.006;2023-06-22T13:04:48;14.93;;;5.43;;
21905;SDS011;11117;48.644;9.006;2023-06-22T13:07:14;13.80;;;5.13;;
21905;SDS011;11117;48.644;9.006;2023-06-22T13:09:39;15.48;;;5.38;;
21905;SDS011;11117;48.644;9.006;2023-06-22T13:12:05;11.48;;;4.95;;
21905;SDS011;11117;48.644;9.006;2023-06-22T13:14:31;17.88;;;5.63;;
21905;SDS011;11117;48.644;9.006;2023-06-22T13:16:56;13.65;;;5.57;;
21905;SDS011;11117;48.644;9.006;2023-06-22T13:19:22;15.20;;;5.25;;
21905;SDS011;11117;48.644;9.006;2023-06-22T13:21:47;19.45;;;5.38;;
21905;SDS011;11117;48.644;9.006;2023-06-22T13:24:13;18.70;;;5.45;;
21905;SDS011;11117;48.644;9.006;2023-06-22T13:26:39;15.70;;;5.78;;
21905;SDS011;11117;48.644;9.006;2023-06-22T13:29:04;21.73;;;5.28;;
21905;SDS011;11117;48.644;9.006;2023-06-22T13:31:30;24.63;;;5.53;;
21905;SDS011;11117;48.644;9.006;2023-06-22T13:33:55;14.82;;;5.45;;
21905;SDS011;11117;48.644;9.006;2023-06-22T13:36:21;17.83;;;5.82;;
21905;SDS011;11117;48.644;9.006;2023-06-22T13:38:46;13.02;;;5.30;;
21905;SDS011;11117;48.644;9.006;2023-06-22T13:41:12;16.30;;;5.40;;
21905;SDS011;11117;48.644;9.006;2023-06-22T13:43:37;24.23;;;5.78;;
21905;SDS011;11117;48.644;9.006;2023-06-22T13:46:03;13.63;;;5.07;;
21905;SDS011;11117;48.644;9.006;2023-06-22T13:48:28;16.67;;;5.35;;
21905;SDS011;11117;48.644;9.006;2023-06-22T13:50:54;24.50;;;6.10;;
21905;SDS011;11117;48.644;9.006;2023-06-22T13:53:20;13.50;;;4.85;;
21905;SDS011;11117;48.644;9.006;2023-06-22T13:55:45;15.18;;;5.18;;
21905;SDS011;11117;48.644;9.006;2023-06-22T13:58:11;15.80;;;5.20;;
21905;SDS011;11117;48.644;9.006;2023-06-22T14:00:36;17.58;;;5.65;;
21905;SDS011;11117;48.644;9.006;2023-06-22T14:03:02;16.05;;;5.10;;
21905;SDS011;11117;48.644;9.006;2023-06-22T14:05:28;13.73;;;5.72;;
21905;SDS011;11117;48.644;9.006;2023-06-22T14:07:55;16.58;;;5.28;;
21905;SDS011;11117;48.644;9.006;2023-06-22T14:10:20;18.02;;;5.13;;
21905;SDS011;11117;48.644;9.006;2023-06-22T14:12:46;11.82;;;4.82;;
21905;SDS011;11117;48.644;9.006;2023-06-22T14:15:11;15.57;;;4.95;;
21905;SDS011;11117;48.644;9.006;2023-06-22T14:17:37;20.08;;;4.97;;
21905;SDS011;11117;48.644;9.006;2023-06-22T14:20:02;14.38;;;4.90;;
21905;SDS011;11117;48.644;9.006;2023-06-22T14:22:28;15.40;;;5.18;;
21905;SDS011;11117;48.644;9.006;2023-06-22T14:24:55;12.88;;;4.78;;
21905;SDS011;11117;48.644;9.006;2023-06-22T14:27:21;14.93;;;3.95;;